sensor_id;sensor_type;location;lat;lon;timestamp;P1;P2;P0
46302;PMS7003;32029;51.358;5.628;2022-09-09T00:00:47;3.00;3.00;3.00
46302;PMS7003;32029;51.358;5.628;2022-09-09T00:03:25;2.00;2.00;2.00
46302;PMS7003;32029;51.358;5.628;2022-09-09T00:11:39;2.33;2.33;2.00
46302;PMS7003;32029;51.358;5.628;2022-09-09T00:14:29;2.33;2.33;2.00
46302;PMS7003;32029;51.358;5.628;2022-09-09T00:17:08;4.00;2.67;2.00
46302;PMS7003;32029;51.358;5.628;2022-09-09T00:22:17;2.00;2.00;2.00
46302;PMS7003;32029;51.358;5.628;2022-09-09T00:24:51;3.00;3.00;3.00
46302;PMS7003;32029;51.358;5.628;2022-09-09T00:27:34;2.00;2.00;2.00
46302;PMS7003;32029;51.358;5.628;2022-09-09T00:30:15;2.00;2.00;2.00
46302;PMS7003;32029;51.358;5.628;2022-09-09T00:32:45;2.00;2.00;1.00
46302;PMS7003;32029;51.358;5.628;2022-09-09T00:35:16;2.67;1.67;1.00
46302;PMS7003;32029;51.358;5.628;2022-09-09T00:38:06;2.67;2.67;2.33
46302;PMS7003;32029;51.358;5.628;2022-09-09T00:40:51;3.00;1.67;1.00
46302;PMS7003;32029;51.358;5.628;2022-09-09T00:51:24;3.00;3.00;2.00
46302;PMS7003;32029;51.358;5.628;2022-09-09T00:54:06;2.67;2.67;2.67
46302;PMS7003;32029;51.358;5.628;2022-09-09T00:56:36;3.33;2.33;1.33
46302;PMS7003;32029;51.358;5.628;2022-09-09T00:59:19;2.33;2.00;2.00
46302;PMS7003;32029;51.358;5.628;2022-09-09T01:01:56;2.00;2.00;2.00
46302;PMS7003;32029;51.358;5.628;2022-09-09T01:04:28;3.67;3.00;2.00
46302;PMS7003;32029;51.358;5.628;2022-09-09T01:07:21;3.33;2.00;2.00
46302;PMS7003;32029;51.358;5.628;2022-09-09T01:09:51;3.00;3.00;1.00
46302;PMS7003;32029;51.358;5.628;2022-09-09T01:12:38;2.67;2.33;2.00
46302;PMS7003;32029;51.358;5.628;2022-09-09T01:15:12;2.67;2.67;2.00
46302;PMS7003;32029;51.358;5.628;2022-09-09T01:20:15;3.00;3.00;3.00
46302;PMS7003;32029;51.358;5.628;2022-09-09T01:25:56;2.00;2.00;1.00
46302;PMS7003;32029;51.358;5.628;2022-09-09T01:28:30;2.00;2.00;1.00
46302;PMS7003;32029;51.358;5.628;2022-09-09T01:31:01;2.00;2.00;2.00
46302;PMS7003;32029;51.358;5.628;2022-09-09T01:33:30;1.33;1.33;1.00
46302;PMS7003;32029;51.358;5.628;2022-09-09T01:38:46;3.33;2.33;2.00
46302;PMS7003;32029;51.358;5.628;2022-09-09T01:41:13;4.67;2.00;2.00
46302;PMS7003;32029;51.358;5.628;2022-09-09T01:43:39;2.00;2.00;2.00
46302;PMS7003;32029;51.358;5.628;2022-09-09T01:46:06;3.00;3.00;2.33
46302;PMS7003;32029;51.358;5.628;2022-09-09T01:48:34;4.00;4.00;3.00
46302;PMS7003;32029;51.358;5.628;2022-09-09T01:51:01;2.67;2.00;2.00
46302;PMS7003;32029;51.358;5.628;2022-09-09T01:53:27;3.00;2.00;1.67
46302;PMS7003;32029;51.358;5.628;2022-09-09T01:58:52;3.00;3.00;3.00
46302;PMS7003;32029;51.358;5.628;2022-09-09T02:04:12;4.00;4.00;3.00
46302;PMS7003;32029;51.358;5.628;2022-09-09T02:07:00;3.00;3.00;3.00
46302;PMS7003;32029;51.358;5.628;2022-09-09T02:09:28;3.00;3.00;3.00
46302;PMS7003;32029;51.358;5.628;2022-09-09T02:11:58;4.33;2.00;2.00
46302;PMS7003;32029;51.358;5.628;2022-09-09T02:14:36;2.33;2.33;2.00
46302;PMS7003;32029;51.358;5.628;2022-09-09T02:17:09;3.00;2.67;1.67
46302;PMS7003;32029;51.358;5.628;2022-09-09T02:19:39;2.33;2.33;2.00
46302;PMS7003;32029;51.358;5.628;2022-09-09T02:22:14;3.00;3.00;2.00
46302;PMS7003;32029;51.358;5.628;2022-09-09T02:24:45;2.33;2.33;2.33
46302;PMS7003;32029;51.358;5.628;2022-09-09T02:27:12;4.00;2.00;2.00
46302;PMS7003;32029;51.358;5.628;2022-09-09T02:29:42;3.00;3.00;2.33
46302;PMS7003;32029;51.358;5.628;2022-09-09T02:32:15;4.33;3.00;2.00
46302;PMS7003;32029;51.358;5.628;2022-09-09T02:34:53;2.00;2.00;2.00
46302;PMS7003;32029;51.358;5.628;2022-09-09T02:37:27;2.00;2.00;1.00
46302;PMS7003;32029;51.358;5.628;2022-09-09T02:40:02;2.00;2.00;1.00
46302;PMS7003;32029;51.358;5.628;2022-09-09T02:42:32;2.33;2.33;2.00
46302;PMS7003;32029;51.358;5.628;2022-09-09T02:45:05;1.00;1.00;1.00
46302;PMS7003;32029;51.358;5.628;2022-09-09T02:47:52;4.00;3.00;2.00
46302;PMS7003;32029;51.358;5.628;2022-09-09T02:50:31;2.00;2.00;1.67
46302;PMS7003;32029;51.358;5.628;2022-09-09T02:53:16;2.67;1.67;1.67
46302;PMS7003;32029;51.358;5.628;2022-09-09T02:58:21;4.33;3.00;2.00
46302;PMS7003;32029;51.358;5.628;2022-09-09T03:00:49;2.00;2.00;2.00
46302;PMS7003;32029;51.358;5.628;2022-09-09T03:03:16;2.33;2.33;2.00
46302;PMS7003;32029;51.358;5.628;2022-09-09T03:05:44;4.00;4.00;3.33
46302;PMS7003;32029;51.358;5.628;2022-09-09T03:08:11;3.00;3.00;2.00
46302;PMS7003;32029;51.358;5.628;2022-09-09T03:10:40;3.40;3.40;2.80
46302;PMS7003;32029;51.358;5.628;2022-09-09T03:13:07;3.00;3.00;2.00
46302;PMS7003;32029;51.358;5.628;2022-09-09T03:15:34;6.00;3.33;2.00
46302;PMS7003;32029;51.358;5.628;2022-09-09T03:18:01;4.00;4.00;3.00
46302;PMS7003;32029;51.358;5.628;2022-09-09T03:20:28;3.00;2.00;2.00
46302;PMS7003;32029;51.358;5.628;2022-09-09T03:22:56;4.00;4.00;3.00
46302;PMS7003;32029;51.358;5.628;2022-09-09T03:25:25;3.00;3.00;2.67
46302;PMS7003;32029;51.358;5.628;2022-09-09T03:27:53;3.20;3.20;2.60
46302;PMS7003;32029;51.358;5.628;2022-09-09T03:30:21;4.00;4.00;2.00
46302;PMS7003;32029;51.358;5.628;2022-09-09T03:32:49;3.67;3.00;3.00
46302;PMS7003;32029;51.358;5.628;2022-09-09T03:35:15;5.00;4.00;3.00
46302;PMS7003;32029;51.358;5.628;2022-09-09T03:37:43;3.33;3.00;3.00
46302;PMS7003;32029;51.358;5.628;2022-09-09T03:40:09;4.00;3.00;3.00
46302;PMS7003;32029;51.358;5.628;2022-09-09T03:42:38;5.00;4.80;3.40
46302;PMS7003;32029;51.358;5.628;2022-09-09T03:45:07;4.00;4.00;3.00
46302;PMS7003;32029;51.358;5.628;2022-09-09T03:47:35;5.00;3.67;3.33
46302;PMS7003;32029;51.358;5.628;2022-09-09T03:50:02;5.00;3.67;3.00
46302;PMS7003;32029;51.358;5.628;2022-09-09T03:52:30;3.67;3.00;2.33
46302;PMS7003;32029;51.358;5.628;2022-09-09T03:54:57;6.67;3.00;3.00
46302;PMS7003;32029;51.358;5.628;2022-09-09T03:57:24;5.00;2.00;1.00
46302;PMS7003;32029;51.358;5.628;2022-09-09T03:59:50;5.67;4.00;3.00
46302;PMS7003;32029;51.358;5.628;2022-09-09T04:02:17;3.00;3.00;3.00
46302;PMS7003;32029;51.358;5.628;2022-09-09T04:04:44;2.67;2.67;2.33
46302;PMS7003;32029;51.358;5.628;2022-09-09T04:07:11;4.33;4.00;3.00
46302;PMS7003;32029;51.358;5.628;2022-09-09T04:09:38;6.33;3.00;2.33
46302;PMS7003;32029;51.358;5.628;2022-09-09T04:12:04;3.33;3.33;3.00
46302;PMS7003;32029;51.358;5.628;2022-09-09T04:14:32;4.67;4.67;3.00
46302;PMS7003;32029;51.358;5.628;2022-09-09T04:16:59;2.33;2.33;2.00
46302;PMS7003;32029;51.358;5.628;2022-09-09T04:19:26;2.00;2.00;2.00
46302;PMS7003;32029;51.358;5.628;2022-09-09T04:21:53;4.00;3.00;2.67
46302;PMS7003;32029;51.358;5.628;2022-09-09T04:24:19;6.00;4.00;3.67
46302;PMS7003;32029;51.358;5.628;2022-09-09T04:26:48;3.00;3.00;2.00
46302;PMS7003;32029;51.358;5.628;2022-09-09T04:29:16;4.20;3.00;3.00
46302;PMS7003;32029;51.358;5.628;2022-09-09T04:31:43;2.33;2.33;1.33
46302;PMS7003;32029;51.358;5.628;2022-09-09T04:34:10;5.33;3.33;2.67
46302;PMS7003;32029;51.358;5.628;2022-09-09T04:36:37;5.00;3.00;3.00
46302;PMS7003;32029;51.358;5.628;2022-09-09T04:39:05;4.00;3.00;2.00
46302;PMS7003;32029;51.358;5.628;2022-09-09T04:41:32;3.67;2.00;2.00
46302;PMS7003;32029;51.358;5.628;2022-09-09T04:43:59;5.33;3.00;3.00
46302;PMS7003;32029;51.358;5.628;2022-09-09T04:46:26;1.33;1.33;1.00
46302;PMS7003;32029;51.358;5.628;2022-09-09T04:48:53;4.00;3.00;2.00
46302;PMS7003;32029;51.358;5.628;2022-09-09T04:51:20;1.67;1.67;1.67
46302;PMS7003;32029;51.358;5.628;2022-09-09T04:53:47;3.00;3.00;2.67
46302;PMS7003;32029;51.358;5.628;2022-09-09T04:56:15;4.33;3.00;2.67
46302;PMS7003;32029;51.358;5.628;2022-09-09T04:58:44;3.00;3.00;3.00
46302;PMS7003;32029;51.358;5.628;2022-09-09T05:01:15;3.00;3.00;3.00
46302;PMS7003;32029;51.358;5.628;2022-09-09T05:03:44;3.00;3.00;2.00
46302;PMS7003;32029;51.358;5.628;2022-09-09T05:06:13;3.67;3.00;3.00
46302;PMS7003;32029;51.358;5.628;2022-09-09T05:08:42;2.33;2.33;2.00
46302;PMS7003;32029;51.358;5.628;2022-09-09T05:11:13;8.33;7.00;6.00
46302;PMS7003;32029;51.358;5.628;2022-09-09T05:13:46;4.33;4.00;3.00
46302;PMS7003;32029;51.358;5.628;2022-09-09T05:16:13;6.00;4.00;2.33
46302;PMS7003;32029;51.358;5.628;2022-09-09T05:18:41;3.33;3.33;3.00
46302;PMS7003;32029;51.358;5.628;2022-09-09T05:21:11;3.33;2.33;2.00
46302;PMS7003;32029;51.358;5.628;2022-09-09T05:23:39;3.00;3.00;2.00
46302;PMS7003;32029;51.358;5.628;2022-09-09T05:26:07;5.00;4.33;3.00
46302;PMS7003;32029;51.358;5.628;2022-09-09T05:28:37;3.00;3.00;2.33
46302;PMS7003;32029;51.358;5.628;2022-09-09T05:31:04;3.00;2.00;2.00
46302;PMS7003;32029;51.358;5.628;2022-09-09T05:33:37;4.00;4.00;3.67
46302;PMS7003;32029;51.358;5.628;2022-09-09T05:36:08;2.20;2.00;1.40
46302;PMS7003;32029;51.358;5.628;2022-09-09T05:38:40;3.00;3.00;2.00
46302;PMS7003;32029;51.358;5.628;2022-09-09T05:41:07;3.00;3.00;3.00
46302;PMS7003;32029;51.358;5.628;2022-09-09T05:43:34;4.00;4.00;3.00
46302;PMS7003;32029;51.358;5.628;2022-09-09T05:46:03;4.33;3.00;3.00
46302;PMS7003;32029;51.358;5.628;2022-09-09T05:48:35;4.00;3.00;3.00
46302;PMS7003;32029;51.358;5.628;2022-09-09T05:51:04;3.00;3.00;3.00
46302;PMS7003;32029;51.358;5.628;2022-09-09T05:53:33;4.00;4.00;3.00
46302;PMS7003;32029;51.358;5.628;2022-09-09T05:58:34;4.67;2.33;1.33
46302;PMS7003;32029;51.358;5.628;2022-09-09T06:01:08;3.00;3.00;2.33
46302;PMS7003;32029;51.358;5.628;2022-09-09T06:03:39;3.33;3.00;2.00
46302;PMS7003;32029;51.358;5.628;2022-09-09T06:06:07;5.00;4.00;3.00
46302;PMS7003;32029;51.358;5.628;2022-09-09T06:08:37;4.20;4.00;2.20
46302;PMS7003;32029;51.358;5.628;2022-09-09T06:11:10;3.00;3.00;3.00
46302;PMS7003;32029;51.358;5.628;2022-09-09T06:13:38;3.33;3.33;3.00
46302;PMS7003;32029;51.358;5.628;2022-09-09T06:16:07;4.00;3.00;3.00
46302;PMS7003;32029;51.358;5.628;2022-09-09T06:18:44;5.00;4.00;3.00
46302;PMS7003;32029;51.358;5.628;2022-09-09T06:21:16;5.00;5.00;3.00
46302;PMS7003;32029;51.358;5.628;2022-09-09T06:23:50;5.33;3.00;3.00
46302;PMS7003;32029;51.358;5.628;2022-09-09T06:26:20;4.00;4.00;3.00
46302;PMS7003;32029;51.358;5.628;2022-09-09T06:28:56;4.00;4.00;3.00
46302;PMS7003;32029;51.358;5.628;2022-09-09T06:31:28;3.60;3.60;3.00
46302;PMS7003;32029;51.358;5.628;2022-09-09T06:33:57;3.33;2.00;2.00
46302;PMS7003;32029;51.358;5.628;2022-09-09T06:36:28;4.67;3.67;3.00
46302;PMS7003;32029;51.358;5.628;2022-09-09T06:38:57;4.00;4.00;3.00
46302;PMS7003;32029;51.358;5.628;2022-09-09T06:41:25;3.33;2.00;1.00
46302;PMS7003;32029;51.358;5.628;2022-09-09T06:43:53;3.00;3.00;3.00
46302;PMS7003;32029;51.358;5.628;2022-09-09T06:46:25;5.67;3.67;3.00
46302;PMS7003;32029;51.358;5.628;2022-09-09T06:48:57;4.00;3.00;3.00
46302;PMS7003;32029;51.358;5.628;2022-09-09T06:51:27;7.00;5.00;4.00
46302;PMS7003;32029;51.358;5.628;2022-09-09T06:53:59;6.00;5.00;3.00
46302;PMS7003;32029;51.358;5.628;2022-09-09T06:56:30;3.00;3.00;2.20
46302;PMS7003;32029;51.358;5.628;2022-09-09T06:59:00;6.60;3.60;2.40
46302;PMS7003;32029;51.358;5.628;2022-09-09T07:01:32;4.00;4.00;3.00
46302;PMS7003;32029;51.358;5.628;2022-09-09T07:04:00;3.00;2.00;2.00
46302;PMS7003;32029;51.358;5.628;2022-09-09T07:06:29;3.33;3.33;3.00
46302;PMS7003;32029;51.358;5.628;2022-09-09T07:08:59;3.00;3.00;3.00
46302;PMS7003;32029;51.358;5.628;2022-09-09T07:11:37;3.00;3.00;3.00
46302;PMS7003;32029;51.358;5.628;2022-09-09T07:14:05;4.00;2.33;2.00
46302;PMS7003;32029;51.358;5.628;2022-09-09T07:16:33;4.00;3.00;2.00
46302;PMS7003;32029;51.358;5.628;2022-09-09T07:19:04;2.80;2.80;2.20
46302;PMS7003;32029;51.358;5.628;2022-09-09T07:21:31;4.00;4.00;3.00
46302;PMS7003;32029;51.358;5.628;2022-09-09T07:23:58;3.67;3.67;3.00
46302;PMS7003;32029;51.358;5.628;2022-09-09T07:26:26;5.33;4.00;2.67
46302;PMS7003;32029;51.358;5.628;2022-09-09T07:28:54;3.67;3.67;3.00
46302;PMS7003;32029;51.358;5.628;2022-09-09T07:31:27;3.00;2.67;2.67
46302;PMS7003;32029;51.358;5.628;2022-09-09T07:33:59;3.33;3.33;3.33
46302;PMS7003;32029;51.358;5.628;2022-09-09T07:36:31;3.60;3.60;3.00
46302;PMS7003;32029;51.358;5.628;2022-09-09T07:39:02;4.00;3.00;2.20
46302;PMS7003;32029;51.358;5.628;2022-09-09T07:44:09;3.33;3.00;3.00
46302;PMS7003;32029;51.358;5.628;2022-09-09T07:46:38;4.33;2.67;2.00
46302;PMS7003;32029;51.358;5.628;2022-09-09T07:49:11;3.00;3.00;2.00
46302;PMS7003;32029;51.358;5.628;2022-09-09T07:51:38;6.00;2.00;2.00
46302;PMS7003;32029;51.358;5.628;2022-09-09T07:54:09;4.60;2.40;1.40
46302;PMS7003;32029;51.358;5.628;2022-09-09T07:56:39;2.00;2.00;2.00
46302;PMS7003;32029;51.358;5.628;2022-09-09T07:59:08;5.00;3.00;2.00
46302;PMS7003;32029;51.358;5.628;2022-09-09T08:01:38;3.40;3.40;2.60
46302;PMS7003;32029;51.358;5.628;2022-09-09T08:04:08;3.00;3.00;3.00
46302;PMS7003;32029;51.358;5.628;2022-09-09T08:06:43;3.00;3.00;2.20
46302;PMS7003;32029;51.358;5.628;2022-09-09T08:09:13;3.20;2.00;2.00
46302;PMS7003;32029;51.358;5.628;2022-09-09T08:11:42;3.00;2.00;2.00
46302;PMS7003;32029;51.358;5.628;2022-09-09T08:14:10;3.40;2.20;2.00
46302;PMS7003;32029;51.358;5.628;2022-09-09T08:16:47;5.00;2.00;1.33
46302;PMS7003;32029;51.358;5.628;2022-09-09T08:19:16;3.33;2.67;2.00
46302;PMS7003;32029;51.358;5.628;2022-09-09T08:21:44;2.20;2.20;2.00
46302;PMS7003;32029;51.358;5.628;2022-09-09T08:24:13;2.00;2.00;2.00
46302;PMS7003;32029;51.358;5.628;2022-09-09T08:26:43;4.33;3.00;3.00
46302;PMS7003;32029;51.358;5.628;2022-09-09T08:29:12;2.00;2.00;1.00
46302;PMS7003;32029;51.358;5.628;2022-09-09T08:31:41;3.00;2.67;2.00
46302;PMS7003;32029;51.358;5.628;2022-09-09T08:34:09;3.67;2.00;2.00
46302;PMS7003;32029;51.358;5.628;2022-09-09T08:36:38;3.67;2.00;1.67
46302;PMS7003;32029;51.358;5.628;2022-09-09T08:39:09;3.00;2.00;2.00
46302;PMS7003;32029;51.358;5.628;2022-09-09T08:41:53;2.00;2.00;2.00
46302;PMS7003;32029;51.358;5.628;2022-09-09T08:52:25;2.00;1.00;1.00
46302;PMS7003;32029;51.358;5.628;2022-09-09T08:54:56;3.60;2.00;2.00
46302;PMS7003;32029;51.358;5.628;2022-09-09T08:57:31;3.00;3.00;2.00
46302;PMS7003;32029;51.358;5.628;2022-09-09T09:00:01;3.80;2.40;2.00
46302;PMS7003;32029;51.358;5.628;2022-09-09T09:05:27;2.60;1.60;1.40
46302;PMS7003;32029;51.358;5.628;2022-09-09T09:11:05;1.60;1.60;1.00
46302;PMS7003;32029;51.358;5.628;2022-09-09T09:16:12;3.00;2.00;2.00
46302;PMS7003;32029;51.358;5.628;2022-09-09T09:18:46;3.80;1.80;1.40
46302;PMS7003;32029;51.358;5.628;2022-09-09T09:21:21;3.00;2.00;1.00
46302;PMS7003;32029;51.358;5.628;2022-09-09T09:24:19;2.00;2.00;2.00
46302;PMS7003;32029;51.358;5.628;2022-09-09T09:26:48;2.00;1.00;1.00
46302;PMS7003;32029;51.358;5.628;2022-09-09T09:29:17;3.00;2.00;1.60
46302;PMS7003;32029;51.358;5.628;2022-09-09T09:31:56;1.80;1.80;1.00
46302;PMS7003;32029;51.358;5.628;2022-09-09T09:34:28;3.67;2.00;1.33
46302;PMS7003;32029;51.358;5.628;2022-09-09T09:36:58;3.00;2.00;1.00
46302;PMS7003;32029;51.358;5.628;2022-09-09T09:39:32;3.00;3.00;3.00
46302;PMS7003;32029;51.358;5.628;2022-09-09T09:42:13;2.00;2.00;2.00
46302;PMS7003;32029;51.358;5.628;2022-09-09T09:44:44;7.40;3.20;2.00
46302;PMS7003;32029;51.358;5.628;2022-09-09T09:47:16;1.60;1.60;1.60
46302;PMS7003;32029;51.358;5.628;2022-09-09T09:49:57;1.33;1.00;1.00
46302;PMS7003;32029;51.358;5.628;2022-09-09T09:52:27;1.00;1.00;1.00
46302;PMS7003;32029;51.358;5.628;2022-09-09T09:54:56;1.33;1.33;1.00
46302;PMS7003;32029;51.358;5.628;2022-09-09T09:57:26;2.00;2.00;1.67
46302;PMS7003;32029;51.358;5.628;2022-09-09T10:00:02;2.40;1.00;1.00
46302;PMS7003;32029;51.358;5.628;2022-09-09T10:02:41;1.00;1.00;1.00
46302;PMS7003;32029;51.358;5.628;2022-09-09T10:05:15;3.60;2.80;2.00
46302;PMS7003;32029;51.358;5.628;2022-09-09T10:07:44;2.33;1.33;1.33
46302;PMS7003;32029;51.358;5.628;2022-09-09T10:10:20;2.00;1.67;1.00
46302;PMS7003;32029;51.358;5.628;2022-09-09T10:13:02;3.00;2.00;1.00
46302;PMS7003;32029;51.358;5.628;2022-09-09T10:18:36;3.00;1.80;1.60
46302;PMS7003;32029;51.358;5.628;2022-09-09T10:24:22;2.00;2.00;1.00
46302;PMS7003;32029;51.358;5.628;2022-09-09T10:27:28;5.00;2.00;2.00
46302;PMS7003;32029;51.358;5.628;2022-09-09T10:30:22;1.80;1.60;1.00
46302;PMS7003;32029;51.358;5.628;2022-09-09T10:35:40;2.40;2.40;2.00
46302;PMS7003;32029;51.358;5.628;2022-09-09T10:52:46;1.40;1.40;1.40
46302;PMS7003;32029;51.358;5.628;2022-09-09T10:55:18;1.00;1.00;1.00
46302;PMS7003;32029;51.358;5.628;2022-09-09T10:57:48;2.00;2.00;2.00
46302;PMS7003;32029;51.358;5.628;2022-09-09T11:00:19;2.33;1.33;1.00
46302;PMS7003;32029;51.358;5.628;2022-09-09T11:02:48;2.00;2.00;2.00
46302;PMS7003;32029;51.358;5.628;2022-09-09T11:05:24;5.00;1.33;1.00
46302;PMS7003;32029;51.358;5.628;2022-09-09T11:10:51;1.33;1.00;1.00
46302;PMS7003;32029;51.358;5.628;2022-09-09T11:13:44;2.40;2.40;1.80
46302;PMS7003;32029;51.358;5.628;2022-09-09T11:16:24;4.40;2.40;1.80
46302;PMS7003;32029;51.358;5.628;2022-09-09T11:19:02;3.60;3.60;1.80
46302;PMS7003;32029;51.358;5.628;2022-09-09T11:21:40;3.00;3.00;2.60
46302;PMS7003;32029;51.358;5.628;2022-09-09T11:24:23;1.80;1.80;1.40
46302;PMS7003;32029;51.358;5.628;2022-09-09T11:35:44;2.00;2.00;2.00
46302;PMS7003;32029;51.358;5.628;2022-09-09T11:38:27;3.20;1.60;1.20
46302;PMS7003;32029;51.358;5.628;2022-09-09T11:41:02;4.00;2.33;2.00
46302;PMS7003;32029;51.358;5.628;2022-09-09T11:43:34;3.00;2.00;1.33
46302;PMS7003;32029;51.358;5.628;2022-09-09T11:46:08;2.60;2.20;2.00
46302;PMS7003;32029;51.358;5.628;2022-09-09T11:48:40;2.33;1.00;1.00
46302;PMS7003;32029;51.358;5.628;2022-09-09T11:53:52;2.00;2.00;2.00
46302;PMS7003;32029;51.358;5.628;2022-09-09T11:56:28;2.80;2.60;2.00
46302;PMS7003;32029;51.358;5.628;2022-09-09T12:01:34;3.00;3.00;3.00
46302;PMS7003;32029;51.358;5.628;2022-09-09T12:04:10;4.00;4.00;3.67
46302;PMS7003;32029;51.358;5.628;2022-09-09T12:06:53;3.00;3.00;3.00
46302;PMS7003;32029;51.358;5.628;2022-09-09T12:09:32;2.20;2.20;2.00
46302;PMS7003;32029;51.358;5.628;2022-09-09T12:19:40;2.00;1.00;1.00
46302;PMS7003;32029;51.358;5.628;2022-09-09T12:24:57;4.00;3.00;2.67
46302;PMS7003;32029;51.358;5.628;2022-09-09T12:27:45;2.80;2.20;2.00
46302;PMS7003;32029;51.358;5.628;2022-09-09T12:30:17;3.33;2.33;2.33
46302;PMS7003;32029;51.358;5.628;2022-09-09T12:32:45;4.20;3.00;2.40
46302;PMS7003;32029;51.358;5.628;2022-09-09T12:35:17;3.60;2.60;1.80
46302;PMS7003;32029;51.358;5.628;2022-09-09T12:37:50;2.80;1.60;0.80
46302;PMS7003;32029;51.358;5.628;2022-09-09T12:40:27;2.20;1.60;1.40
46302;PMS7003;32029;51.358;5.628;2022-09-09T12:42:57;3.20;1.40;1.40
46302;PMS7003;32029;51.358;5.628;2022-09-09T12:45:27;2.80;1.80;1.20
46302;PMS7003;32029;51.358;5.628;2022-09-09T12:47:59;3.80;2.40;2.40
46302;PMS7003;32029;51.358;5.628;2022-09-09T12:50:31;2.00;1.33;1.00
46302;PMS7003;32029;51.358;5.628;2022-09-09T12:53:07;2.00;2.00;1.00
46302;PMS7003;32029;51.358;5.628;2022-09-09T12:55:49;1.00;1.00;0.80
46302;PMS7003;32029;51.358;5.628;2022-09-09T12:58:19;2.80;2.20;1.80
46302;PMS7003;32029;51.358;5.628;2022-09-09T13:00:49;3.40;2.40;2.40
46302;PMS7003;32029;51.358;5.628;2022-09-09T13:03:23;1.00;1.00;0.20
46302;PMS7003;32029;51.358;5.628;2022-09-09T13:05:52;4.00;1.20;0.80
46302;PMS7003;32029;51.358;5.628;2022-09-09T13:08:27;2.00;0.00;0.00
46302;PMS7003;32029;51.358;5.628;2022-09-09T13:11:02;2.00;1.00;1.00
46302;PMS7003;32029;51.358;5.628;2022-09-09T13:13:36;0.00;0.00;0.00
46302;PMS7003;32029;51.358;5.628;2022-09-09T13:16:07;0.00;0.00;0.00
46302;PMS7003;32029;51.358;5.628;2022-09-09T13:18:47;1.00;1.00;1.00
46302;PMS7003;32029;51.358;5.628;2022-09-09T13:21:15;0.20;0.00;0.00
46302;PMS7003;32029;51.358;5.628;2022-09-09T13:23:47;0.40;0.40;0.00
46302;PMS7003;32029;51.358;5.628;2022-09-09T13:26:20;2.00;0.67;0.00
46302;PMS7003;32029;51.358;5.628;2022-09-09T13:28:50;1.33;0.00;0.00
46302;PMS7003;32029;51.358;5.628;2022-09-09T13:33:49;2.00;1.00;1.00
46302;PMS7003;32029;51.358;5.628;2022-09-09T13:36:16;3.00;0.00;0.00
46302;PMS7003;32029;51.358;5.628;2022-09-09T13:38:57;2.80;0.80;0.00
46302;PMS7003;32029;51.358;5.628;2022-09-09T13:41:30;2.00;0.00;0.00
46302;PMS7003;32029;51.358;5.628;2022-09-09T13:44:01;0.60;0.60;0.60
46302;PMS7003;32029;51.358;5.628;2022-09-09T13:46:34;0.00;0.00;0.00
46302;PMS7003;32029;51.358;5.628;2022-09-09T13:51:44;0.00;0.00;0.00
46302;PMS7003;32029;51.358;5.628;2022-09-09T13:54:13;0.00;0.00;0.00
46302;PMS7003;32029;51.358;5.628;2022-09-09T13:56:42;1.67;1.00;0.00
46302;PMS7003;32029;51.358;5.628;2022-09-09T13:59:11;2.00;0.00;0.00
46302;PMS7003;32029;51.358;5.628;2022-09-09T14:01:40;1.00;1.00;1.00
46302;PMS7003;32029;51.358;5.628;2022-09-09T14:04:09;1.60;0.20;0.20
46302;PMS7003;32029;51.358;5.628;2022-09-09T14:06:36;0.00;0.00;0.00
46302;PMS7003;32029;51.358;5.628;2022-09-09T14:09:05;1.00;1.00;1.00
46302;PMS7003;32029;51.358;5.628;2022-09-09T14:11:36;0.00;0.00;0.00
46302;PMS7003;32029;51.358;5.628;2022-09-09T14:14:04;2.00;0.00;0.00
46302;PMS7003;32029;51.358;5.628;2022-09-09T14:16:31;0.67;0.67;0.00
46302;PMS7003;32029;51.358;5.628;2022-09-09T14:18:59;2.00;1.00;0.67
46302;PMS7003;32029;51.358;5.628;2022-09-09T14:21:27;1.00;1.00;0.80
46302;PMS7003;32029;51.358;5.628;2022-09-09T14:23:54;1.00;1.00;0.33
46302;PMS7003;32029;51.358;5.628;2022-09-09T14:26:21;0.00;0.00;0.00
46302;PMS7003;32029;51.358;5.628;2022-09-09T14:28:48;0.00;0.00;0.00
46302;PMS7003;32029;51.358;5.628;2022-09-09T14:31:16;1.00;0.60;0.00
46302;PMS7003;32029;51.358;5.628;2022-09-09T14:33:46;0.67;0.67;0.33
46302;PMS7003;32029;51.358;5.628;2022-09-09T14:36:13;0.80;0.20;0.20
46302;PMS7003;32029;51.358;5.628;2022-09-09T14:38:41;1.00;0.00;0.00
46302;PMS7003;32029;51.358;5.628;2022-09-09T14:41:10;1.00;1.00;0.80
46302;PMS7003;32029;51.358;5.628;2022-09-09T14:43:39;0.00;0.00;0.00
46302;PMS7003;32029;51.358;5.628;2022-09-09T14:46:06;0.67;0.67;0.00
46302;PMS7003;32029;51.358;5.628;2022-09-09T14:48:35;0.33;0.00;0.00
46302;PMS7003;32029;51.358;5.628;2022-09-09T14:51:10;0.60;0.60;0.60
46302;PMS7003;32029;51.358;5.628;2022-09-09T14:53:39;1.00;1.00;1.00
46302;PMS7003;32029;51.358;5.628;2022-09-09T14:56:14;1.33;1.00;0.67
46302;PMS7003;32029;51.358;5.628;2022-09-09T14:58:44;0.60;0.00;0.00
46302;PMS7003;32029;51.358;5.628;2022-09-09T15:01:14;1.00;1.00;1.00
46302;PMS7003;32029;51.358;5.628;2022-09-09T15:03:42;0.67;0.33;0.00
46302;PMS7003;32029;51.358;5.628;2022-09-09T15:06:17;0.33;0.33;0.00
46302;PMS7003;32029;51.358;5.628;2022-09-09T15:08:44;0.00;0.00;0.00
46302;PMS7003;32029;51.358;5.628;2022-09-09T15:11:13;1.80;1.00;1.00
46302;PMS7003;32029;51.358;5.628;2022-09-09T15:13:42;0.40;0.00;0.00
46302;PMS7003;32029;51.358;5.628;2022-09-09T15:16:13;1.00;0.00;0.00
46302;PMS7003;32029;51.358;5.628;2022-09-09T15:18:43;1.20;1.20;1.00
46302;PMS7003;32029;51.358;5.628;2022-09-09T15:21:14;1.00;1.00;1.00
46302;PMS7003;32029;51.358;5.628;2022-09-09T15:23:44;1.40;0.40;0.00
46302;PMS7003;32029;51.358;5.628;2022-09-09T15:26:11;1.00;1.00;1.00
46302;PMS7003;32029;51.358;5.628;2022-09-09T15:28:41;1.00;0.00;0.00
46302;PMS7003;32029;51.358;5.628;2022-09-09T15:31:22;0.00;0.00;0.00
46302;PMS7003;32029;51.358;5.628;2022-09-09T15:33:51;0.33;0.33;0.33
46302;PMS7003;32029;51.358;5.628;2022-09-09T15:36:19;0.67;0.67;0.33
46302;PMS7003;32029;51.358;5.628;2022-09-09T15:38:51;1.00;1.00;1.00
46302;PMS7003;32029;51.358;5.628;2022-09-09T15:41:20;1.00;1.00;0.80
46302;PMS7003;32029;51.358;5.628;2022-09-09T15:43:48;1.33;1.33;1.00
46302;PMS7003;32029;51.358;5.628;2022-09-09T15:46:21;0.00;0.00;0.00
46302;PMS7003;32029;51.358;5.628;2022-09-09T15:48:57;1.00;0.00;0.00
46302;PMS7003;32029;51.358;5.628;2022-09-09T15:51:29;2.00;1.00;0.67
46302;PMS7003;32029;51.358;5.628;2022-09-09T15:53:57;1.00;1.00;0.60
46302;PMS7003;32029;51.358;5.628;2022-09-09T15:56:26;1.00;0.00;0.00
46302;PMS7003;32029;51.358;5.628;2022-09-09T15:58:56;0.00;0.00;0.00
46302;PMS7003;32029;51.358;5.628;2022-09-09T16:01:26;0.00;0.00;0.00
46302;PMS7003;32029;51.358;5.628;2022-09-09T16:03:54;0.00;0.00;0.00
46302;PMS7003;32029;51.358;5.628;2022-09-09T16:06:21;0.00;0.00;0.00
46302;PMS7003;32029;51.358;5.628;2022-09-09T16:08:52;2.00;0.20;0.00
46302;PMS7003;32029;51.358;5.628;2022-09-09T16:11:20;0.00;0.00;0.00
46302;PMS7003;32029;51.358;5.628;2022-09-09T16:13:53;0.00;0.00;0.00
46302;PMS7003;32029;51.358;5.628;2022-09-09T16:16:21;0.00;0.00;0.00
46302;PMS7003;32029;51.358;5.628;2022-09-09T16:18:51;0.00;0.00;0.00
46302;PMS7003;32029;51.358;5.628;2022-09-09T16:21:22;0.00;0.00;0.00
46302;PMS7003;32029;51.358;5.628;2022-09-09T16:23:55;0.00;0.00;0.00
46302;PMS7003;32029;51.358;5.628;2022-09-09T16:26:25;1.00;1.00;0.67
46302;PMS7003;32029;51.358;5.628;2022-09-09T16:28:53;1.00;0.00;0.00
46302;PMS7003;32029;51.358;5.628;2022-09-09T16:31:21;1.00;1.00;1.00
46302;PMS7003;32029;51.358;5.628;2022-09-09T16:33:50;0.60;0.60;0.40
46302;PMS7003;32029;51.358;5.628;2022-09-09T16:36:19;0.00;0.00;0.00
46302;PMS7003;32029;51.358;5.628;2022-09-09T16:38:51;0.60;0.60;0.40